sensor_id;sensor_type;location;lat;lon;timestamp;P1;durP1;ratioP1;P2;durP2;ratioP2
5805;SDS011;2929;50.810;8.342;2024-01-10T00:01:03;12.83;;;5.70;;
5805;SDS011;2929;50.810;8.342;2024-01-10T00:03:30;15.27;;;6.53;;
5805;SDS011;2929;50.810;8.342;2024-01-10T00:05:57;17.00;;;6.07;;
5805;SDS011;2929;50.810;8.342;2024-01-10T00:08:26;13.00;;;6.70;;
5805;SDS011;2929;50.810;8.342;2024-01-10T00:10:52;12.30;;;6.03;;
5805;SDS011;2929;50.810;8.342;2024-01-10T00:13:20;10.80;;;5.20;;
5805;SDS011;2929;50.810;8.342;2024-01-10T00:15:47;14.23;;;5.33;;
5805;SDS011;2929;50.810;8.342;2024-01-10T00:18:14;14.67;;;4.70;;
5805;SDS011;2929;50.810;8.342;2024-01-10T00:20:41;15.43;;;6.30;;
5805;SDS011;2929;50.810;8.342;2024-01-10T00:23:08;13.27;;;6.43;;
5805;SDS011;2929;50.810;8.342;2024-01-10T00:25:37;12.70;;;6.30;;
5805;SDS011;2929;50.810;8.342;2024-01-10T00:28:04;13.10;;;6.40;;
5805;SDS011;2929;50.810;8.342;2024-01-10T00:30:32;11.17;;;5.00;;
5805;SDS011;2929;50.810;8.342;2024-01-10T00:32:59;13.40;;;5.80;;
5805;SDS011;2929;50.810;8.342;2024-01-10T00:35:26;14.90;;;6.47;;
5805;SDS011;2929;50.810;8.342;2024-01-10T00:37:53;15.47;;;6.50;;
5805;SDS011;2929;50.810;8.342;2024-01-10T00:40:20;13.17;;;6.70;;
5805;SDS011;2929;50.810;8.342;2024-01-10T00:42:49;13.53;;;5.87;;
5805;SDS011;2929;50.810;8.342;2024-01-10T00:45:16;11.70;;;6.00;;
5805;SDS011;2929;50.810;8.342;2024-01-10T00:47:43;19.17;;;7.17;;
5805;SDS011;2929;50.810;8.342;2024-01-10T00:50:10;13.10;;;5.57;;
5805;SDS011;2929;50.810;8.342;2024-01-10T00:52:37;17.57;;;6.43;;
5805;SDS011;2929;50.810;8.342;2024-01-10T00:55:04;15.93;;;6.60;;
5805;SDS011;2929;50.810;8.342;2024-01-10T00:57:31;13.70;;;7.00;;
5805;SDS011;2929;50.810;8.342;2024-01-10T01:00:00;15.77;;;7.33;;
5805;SDS011;2929;50.810;8.342;2024-01-10T01:02:28;18.70;;;8.33;;
5805;SDS011;2929;50.810;8.342;2024-01-10T01:04:55;13.27;;;6.50;;
5805;SDS011;2929;50.810;8.342;2024-01-10T01:07:22;18.70;;;7.23;;
5805;SDS011;2929;50.810;8.342;2024-01-10T01:09:49;14.67;;;6.20;;
5805;SDS011;2929;50.810;8.342;2024-01-10T01:12:16;13.77;;;6.53;;
5805;SDS011;2929;50.810;8.342;2024-01-10T01:14:43;14.07;;;7.27;;
5805;SDS011;2929;50.810;8.342;2024-01-10T01:17:12;15.07;;;7.13;;
5805;SDS011;2929;50.810;8.342;2024-01-10T01:19:39;14.77;;;8.20;;
5805;SDS011;2929;50.810;8.342;2024-01-10T01:22:06;17.53;;;7.90;;
5805;SDS011;2929;50.810;8.342;2024-01-10T01:24:33;14.93;;;7.80;;
5805;SDS011;2929;50.810;8.342;2024-01-10T01:27:00;16.60;;;6.97;;
5805;SDS011;2929;50.810;8.342;2024-01-10T01:29:27;17.77;;;6.60;;
5805;SDS011;2929;50.810;8.342;2024-01-10T01:31:55;18.57;;;7.00;;
5805;SDS011;2929;50.810;8.342;2024-01-10T01:34:22;15.27;;;6.90;;
5805;SDS011;2929;50.810;8.342;2024-01-10T01:36:49;15.13;;;7.30;;
5805;SDS011;2929;50.810;8.342;2024-01-10T01:39:16;22.40;;;7.17;;
5805;SDS011;2929;50.810;8.342;2024-01-10T01:41:43;16.10;;;7.33;;
5805;SDS011;2929;50.810;8.342;2024-01-10T01:44:10;19.57;;;7.27;;
5805;SDS011;2929;50.810;8.342;2024-01-10T01:46:38;14.00;;;6.57;;
5805;SDS011;2929;50.810;8.342;2024-01-10T01:49:06;22.73;;;10.00;;
5805;SDS011;2929;50.810;8.342;2024-01-10T01:51:35;15.20;;;7.10;;
5805;SDS011;2929;50.810;8.342;2024-01-10T01:54:02;13.67;;;7.17;;
5805;SDS011;2929;50.810;8.342;2024-01-10T01:56:33;19.03;;;7.80;;
5805;SDS011;2929;50.810;8.342;2024-01-10T01:59:00;17.40;;;8.30;;
5805;SDS011;2929;50.810;8.342;2024-01-10T02:01:28;16.73;;;7.67;;
5805;SDS011;2929;50.810;8.342;2024-01-10T02:03:55;15.00;;;7.43;;
5805;SDS011;2929;50.810;8.342;2024-01-10T02:06:22;16.70;;;6.50;;
5805;SDS011;2929;50.810;8.342;2024-01-10T02:08:50;16.67;;;8.10;;
5805;SDS011;2929;50.810;8.342;2024-01-10T02:11:18;16.40;;;7.73;;
5805;SDS011;2929;50.810;8.342;2024-01-10T02:13:46;15.30;;;7.27;;
5805;SDS011;2929;50.810;8.342;2024-01-10T02:16:15;11.60;;;7.23;;
5805;SDS011;2929;50.810;8.342;2024-01-10T02:18:42;16.57;;;7.93;;
5805;SDS011;2929;50.810;8.342;2024-01-10T02:21:08;20.10;;;7.70;;
5805;SDS011;2929;50.810;8.342;2024-01-10T02:23:35;11.57;;;5.97;;
5805;SDS011;2929;50.810;8.342;2024-01-10T02:26:04;14.30;;;6.97;;
5805;SDS011;2929;50.810;8.342;2024-01-10T02:28:31;17.60;;;7.00;;
5805;SDS011;2929;50.810;8.342;2024-01-10T02:30:58;18.90;;;7.30;;
5805;SDS011;2929;50.810;8.342;2024-01-10T02:33:26;16.57;;;6.40;;
5805;SDS011;2929;50.810;8.342;2024-01-10T02:35:53;12.47;;;5.60;;
5805;SDS011;2929;50.810;8.342;2024-01-10T02:38:20;19.33;;;7.40;;
5805;SDS011;2929;50.810;8.342;2024-01-10T02:40:49;15.50;;;7.37;;
5805;SDS011;2929;50.810;8.342;2024-01-10T02:43:22;14.40;;;6.80;;
5805;SDS011;2929;50.810;8.342;2024-01-10T02:45:50;16.07;;;8.13;;
5805;SDS011;2929;50.810;8.342;2024-01-10T02:48:17;13.13;;;6.23;;
5805;SDS011;2929;50.810;8.342;2024-01-10T02:50:43;11.47;;;5.70;;
5805;SDS011;2929;50.810;8.342;2024-01-10T02:53:10;12.80;;;6.70;;
5805;SDS011;2929;50.810;8.342;2024-01-10T02:55:37;15.80;;;5.93;;
5805;SDS011;2929;50.810;8.342;2024-01-10T02:58:05;16.20;;;7.93;;
5805;SDS011;2929;50.810;8.342;2024-01-10T03:00:33;18.30;;;6.50;;
5805;SDS011;2929;50.810;8.342;2024-01-10T03:03:01;17.30;;;7.70;;
5805;SDS011;2929;50.810;8.342;2024-01-10T03:05:28;15.77;;;7.37;;
5805;SDS011;2929;50.810;8.342;2024-01-10T03:07:54;14.10;;;7.13;;
5805;SDS011;2929;50.810;8.342;2024-01-10T03:10:21;15.77;;;7.57;;
5805;SDS011;2929;50.810;8.342;2024-01-10T03:12:48;18.17;;;8.23;;
5805;SDS011;2929;50.810;8.342;2024-01-10T03:15:15;17.07;;;7.83;;
5805;SDS011;2929;50.810;8.342;2024-01-10T03:17:44;18.60;;;8.00;;
5805;SDS011;2929;50.810;8.342;2024-01-10T03:20:11;19.20;;;7.60;;
5805;SDS011;2929;50.810;8.342;2024-01-10T03:22:38;15.07;;;7.70;;
5805;SDS011;2929;50.810;8.342;2024-01-10T03:25:05;15.37;;;7.33;;
5805;SDS011;2929;50.810;8.342;2024-01-10T03:27:33;16.93;;;8.10;;
5805;SDS011;2929;50.810;8.342;2024-01-10T03:30:00;15.60;;;7.50;;
5805;SDS011;2929;50.810;8.342;2024-01-10T03:32:26;17.27;;;7.97;;
5805;SDS011;2929;50.810;8.342;2024-01-10T03:34:55;15.30;;;7.23;;
5805;SDS011;2929;50.810;8.342;2024-01-10T03:37:21;15.00;;;7.07;;
5805;SDS011;2929;50.810;8.342;2024-01-10T03:39:48;22.67;;;9.40;;
5805;SDS011;2929;50.810;8.342;2024-01-10T03:42:15;17.77;;;8.33;;
5805;SDS011;2929;50.810;8.342;2024-01-10T03:44:42;21.10;;;8.57;;
5805;SDS011;2929;50.810;8.342;2024-01-10T03:47:09;14.23;;;7.90;;
5805;SDS011;2929;50.810;8.342;2024-01-10T03:49:36;18.90;;;8.67;;
5805;SDS011;2929;50.810;8.342;2024-01-10T03:52:04;15.93;;;7.90;;
5805;SDS011;2929;50.810;8.342;2024-01-10T03:54:31;16.43;;;8.27;;
5805;SDS011;2929;50.810;8.342;2024-01-10T03:56:58;13.63;;;6.80;;
5805;SDS011;2929;50.810;8.342;2024-01-10T03:59:25;13.07;;;6.17;;
5805;SDS011;2929;50.810;8.342;2024-01-10T04:01:52;17.40;;;7.57;;
5805;SDS011;2929;50.810;8.342;2024-01-10T04:04:19;15.27;;;7.50;;
5805;SDS011;2929;50.810;8.342;2024-01-10T04:06:47;14.80;;;8.40;;
5805;SDS011;2929;50.810;8.342;2024-01-10T04:09:15;14.80;;;7.93;;
5805;SDS011;2929;50.810;8.342;2024-01-10T04:11:42;15.70;;;8.07;;
5805;SDS011;2929;50.810;8.342;2024-01-10T04:14:09;14.70;;;7.03;;
5805;SDS011;2929;50.810;8.342;2024-01-10T04:16:37;17.17;;;8.50;;
5805;SDS011;2929;50.810;8.342;2024-01-10T04:19:03;21.27;;;8.60;;
5805;SDS011;2929;50.810;8.342;2024-01-10T04:21:30;26.20;;;8.33;;
5805;SDS011;2929;50.810;8.342;2024-01-10T04:23:57;19.27;;;8.13;;
5805;SDS011;2929;50.810;8.342;2024-01-10T04:26:25;17.37;;;8.20;;
5805;SDS011;2929;50.810;8.342;2024-01-10T04:28:52;16.60;;;8.10;;
5805;SDS011;2929;50.810;8.342;2024-01-10T04:31:19;18.50;;;7.90;;
5805;SDS011;2929;50.810;8.342;2024-01-10T04:33:46;16.77;;;8.30;;
5805;SDS011;2929;50.810;8.342;2024-01-10T04:36:13;11.43;;;5.90;;
5805;SDS011;2929;50.810;8.342;2024-01-10T04:38:40;19.60;;;8.87;;
5805;SDS011;2929;50.810;8.342;2024-01-10T04:41:06;13.00;;;7.17;;
5805;SDS011;2929;50.810;8.342;2024-01-10T04:43:35;17.00;;;6.80;;
5805;SDS011;2929;50.810;8.342;2024-01-10T04:46:02;17.10;;;8.57;;
5805;SDS011;2929;50.810;8.342;2024-01-10T04:48:30;19.03;;;9.00;;
5805;SDS011;2929;50.810;8.342;2024-01-10T04:50:57;20.30;;;6.97;;
5805;SDS011;2929;50.810;8.342;2024-01-10T04:53:24;29.23;;;11.00;;
5805;SDS011;2929;50.810;8.342;2024-01-10T04:55:51;18.90;;;10.07;;
5805;SDS011;2929;50.810;8.342;2024-01-10T04:58:17;22.70;;;8.97;;
5805;SDS011;2929;50.810;8.342;2024-01-10T05:00:46;20.37;;;10.27;;
5805;SDS011;2929;50.810;8.342;2024-01-10T05:03:12;18.50;;;9.73;;
5805;SDS011;2929;50.810;8.342;2024-01-10T05:05:39;11.87;;;4.77;;
5805;SDS011;2929;50.810;8.342;2024-01-10T05:08:06;37.13;;;15.63;;
5805;SDS011;2929;50.810;8.342;2024-01-10T05:10:33;28.87;;;12.70;;
5805;SDS011;2929;50.810;8.342;2024-01-10T05:13:00;23.33;;;10.30;;
5805;SDS011;2929;50.810;8.342;2024-01-10T05:15:27;17.27;;;8.07;;
5805;SDS011;2929;50.810;8.342;2024-01-10T05:17:56;20.07;;;9.70;;
5805;SDS011;2929;50.810;8.342;2024-01-10T05:20:24;20.27;;;9.53;;
5805;SDS011;2929;50.810;8.342;2024-01-10T05:22:51;18.10;;;9.30;;
5805;SDS011;2929;50.810;8.342;2024-01-10T05:25:17;24.83;;;9.47;;
5805;SDS011;2929;50.810;8.342;2024-01-10T05:27:44;16.40;;;7.40;;
5805;SDS011;2929;50.810;8.342;2024-01-10T05:30:11;20.70;;;8.53;;
5805;SDS011;2929;50.810;8.342;2024-01-10T05:32:38;21.70;;;9.57;;
5805;SDS011;2929;50.810;8.342;2024-01-10T05:35:07;20.90;;;9.90;;
5805;SDS011;2929;50.810;8.342;2024-01-10T05:37:35;18.20;;;8.77;;
5805;SDS011;2929;50.810;8.342;2024-01-10T05:40:02;26.37;;;11.33;;
5805;SDS011;2929;50.810;8.342;2024-01-10T05:42:30;21.23;;;10.07;;
5805;SDS011;2929;50.810;8.342;2024-01-10T05:44:58;27.07;;;11.27;;
5805;SDS011;2929;50.810;8.342;2024-01-10T05:47:25;23.50;;;11.47;;
5805;SDS011;2929;50.810;8.342;2024-01-10T05:49:53;15.00;;;8.70;;
5805;SDS011;2929;50.810;8.342;2024-01-10T05:52:21;15.70;;;8.40;;
5805;SDS011;2929;50.810;8.342;2024-01-10T05:54:48;19.50;;;9.00;;
5805;SDS011;2929;50.810;8.342;2024-01-10T05:57:15;23.40;;;10.03;;
5805;SDS011;2929;50.810;8.342;2024-01-10T05:59:42;21.33;;;10.57;;
5805;SDS011;2929;50.810;8.342;2024-01-10T06:02:09;23.97;;;10.43;;
5805;SDS011;2929;50.810;8.342;2024-01-10T06:04:36;20.60;;;10.43;;
5805;SDS011;2929;50.810;8.342;2024-01-10T06:07:03;24.00;;;10.30;;
5805;SDS011;2929;50.810;8.342;2024-01-10T06:09:32;19.67;;;10.00;;
5805;SDS011;2929;50.810;8.342;2024-01-10T06:11:58;23.03;;;11.40;;
5805;SDS011;2929;50.810;8.342;2024-01-10T06:14:24;19.83;;;9.43;;
5805;SDS011;2929;50.810;8.342;2024-01-10T06:16:51;23.10;;;9.50;;
5805;SDS011;2929;50.810;8.342;2024-01-10T06:19:18;21.67;;;10.40;;
5805;SDS011;2929;50.810;8.342;2024-01-10T06:21:46;34.17;;;13.77;;
5805;SDS011;2929;50.810;8.342;2024-01-10T06:24:13;16.67;;;7.07;;
5805;SDS011;2929;50.810;8.342;2024-01-10T06:26:41;20.13;;;9.90;;
5805;SDS011;2929;50.810;8.342;2024-01-10T06:29:08;20.60;;;9.87;;
5805;SDS011;2929;50.810;8.342;2024-01-10T06:31:35;20.67;;;9.77;;
5805;SDS011;2929;50.810;8.342;2024-01-10T06:34:02;24.47;;;9.10;;
5805;SDS011;2929;50.810;8.342;2024-01-10T06:36:29;22.37;;;9.57;;
5805;SDS011;2929;50.810;8.342;2024-01-10T06:38:56;26.00;;;11.77;;
5805;SDS011;2929;50.810;8.342;2024-01-10T06:41:23;31.33;;;11.87;;
5805;SDS011;2929;50.810;8.342;2024-01-10T06:43:51;20.63;;;10.53;;
5805;SDS011;2929;50.810;8.342;2024-01-10T06:46:19;24.37;;;11.43;;
5805;SDS011;2929;50.810;8.342;2024-01-10T06:48:46;21.13;;;11.23;;
5805;SDS011;2929;50.810;8.342;2024-01-10T06:51:13;32.13;;;11.27;;
5805;SDS011;2929;50.810;8.342;2024-01-10T06:53:41;23.47;;;10.60;;
5805;SDS011;2929;50.810;8.342;2024-01-10T06:56:09;30.43;;;11.93;;
5805;SDS011;2929;50.810;8.342;2024-01-10T06:58:36;22.83;;;12.20;;
5805;SDS011;2929;50.810;8.342;2024-01-10T07:01:10;26.17;;;11.20;;
5805;SDS011;2929;50.810;8.342;2024-01-10T07:03:38;32.57;;;11.23;;
5805;SDS011;2929;50.810;8.342;2024-01-10T07:06:05;25.57;;;11.43;;
5805;SDS011;2929;50.810;8.342;2024-01-10T07:08:32;19.60;;;8.30;;
5805;SDS011;2929;50.810;8.342;2024-01-10T07:10:59;19.30;;;11.03;;
5805;SDS011;2929;50.810;8.342;2024-01-10T07:13:26;29.77;;;11.80;;
5805;SDS011;2929;50.810;8.342;2024-01-10T07:15:53;34.67;;;12.50;;
5805;SDS011;2929;50.810;8.342;2024-01-10T07:18:21;26.00;;;10.63;;
5805;SDS011;2929;50.810;8.342;2024-01-10T07:20:48;26.90;;;12.60;;
5805;SDS011;2929;50.810;8.342;2024-01-10T07:23:15;31.43;;;13.37;;
5805;SDS011;2929;50.810;8.342;2024-01-10T07:25:42;44.47;;;16.00;;
5805;SDS011;2929;50.810;8.342;2024-01-10T07:28:09;110.20;;;26.20;;
5805;SDS011;2929;50.810;8.342;2024-01-10T07:30:36;44.20;;;15.57;;
5805;SDS011;2929;50.810;8.342;2024-01-10T07:33:03;38.17;;;15.80;;
5805;SDS011;2929;50.810;8.342;2024-01-10T07:35:31;30.43;;;12.67;;
5805;SDS011;2929;50.810;8.342;2024-01-10T07:37:58;36.90;;;15.60;;
5805;SDS011;2929;50.810;8.342;2024-01-10T07:40:25;31.77;;;14.37;;
5805;SDS011;2929;50.810;8.342;2024-01-10T07:42:52;33.20;;;13.13;;
5805;SDS011;2929;50.810;8.342;2024-01-10T07:45:19;22.90;;;12.03;;
5805;SDS011;2929;50.810;8.342;2024-01-10T07:47:47;36.90;;;15.20;;
5805;SDS011;2929;50.810;8.342;2024-01-10T07:50:13;43.53;;;18.63;;
5805;SDS011;2929;50.810;8.342;2024-01-10T07:52:42;35.40;;;14.27;;
5805;SDS011;2929;50.810;8.342;2024-01-10T07:55:11;79.17;;;34.07;;
5805;SDS011;2929;50.810;8.342;2024-01-10T07:57:40;44.20;;;19.03;;
5805;SDS011;2929;50.810;8.342;2024-01-10T08:00:08;37.77;;;16.10;;
5805;SDS011;2929;50.810;8.342;2024-01-10T08:02:39;30.43;;;15.23;;
5805;SDS011;2929;50.810;8.342;2024-01-10T08:05:09;44.50;;;17.37;;
5805;SDS011;2929;50.810;8.342;2024-01-10T08:07:38;31.70;;;14.73;;
5805;SDS011;2929;50.810;8.342;2024-01-10T08:10:07;30.90;;;13.30;;
5805;SDS011;2929;50.810;8.342;2024-01-10T08:12:35;39.30;;;15.20;;
5805;SDS011;2929;50.810;8.342;2024-01-10T08:15:04;62.10;;;25.53;;
5805;SDS011;2929;50.810;8.342;2024-01-10T08:17:32;44.90;;;18.97;;
5805;SDS011;2929;50.810;8.342;2024-01-10T08:19:59;54.67;;;23.67;;
5805;SDS011;2929;50.810;8.342;2024-01-10T08:22:29;38.47;;;16.67;;
5805;SDS011;2929;50.810;8.342;2024-01-10T08:24:56;25.57;;;12.60;;
5805;SDS011;2929;50.810;8.342;2024-01-10T08:27:24;42.60;;;17.07;;
5805;SDS011;2929;50.810;8.342;2024-01-10T08:29:51;52.50;;;22.53;;
5805;SDS011;2929;50.810;8.342;2024-01-10T08:32:18;35.33;;;15.73;;
5805;SDS011;2929;50.810;8.342;2024-01-10T08:34:47;32.40;;;11.67;;
5805;SDS011;2929;50.810;8.342;2024-01-10T08:37:14;30.20;;;12.70;;
5805;SDS011;2929;50.810;8.342;2024-01-10T08:39:42;23.97;;;11.43;;
5805;SDS011;2929;50.810;8.342;2024-01-10T08:42:09;29.10;;;13.00;;
5805;SDS011;2929;50.810;8.342;2024-01-10T08:44:38;22.97;;;11.63;;
5805;SDS011;2929;50.810;8.342;2024-01-10T08:47:05;30.87;;;12.90;;
5805;SDS011;2929;50.810;8.342;2024-01-10T08:49:32;26.17;;;12.20;;
5805;SDS011;2929;50.810;8.342;2024-01-10T08:51:59;23.77;;;11.07;;
5805;SDS011;2929;50.810;8.342;2024-01-10T08:54:25;20.27;;;11.43;;
5805;SDS011;2929;50.810;8.342;2024-01-10T08:56:52;29.00;;;12.27;;
5805;SDS011;2929;50.810;8.342;2024-01-10T08:59:20;20.70;;;10.97;;
5805;SDS011;2929;50.810;8.342;2024-01-10T09:01:49;36.03;;;13.07;;
5805;SDS011;2929;50.810;8.342;2024-01-10T09:04:17;31.50;;;13.23;;
5805;SDS011;2929;50.810;8.342;2024-01-10T09:06:45;24.97;;;11.30;;
5805;SDS011;2929;50.810;8.342;2024-01-10T09:09:12;28.50;;;13.47;;
5805;SDS011;2929;50.810;8.342;2024-01-10T09:11:39;27.87;;;12.23;;
5805;SDS011;2929;50.810;8.342;2024-01-10T09:14:06;28.63;;;13.10;;
5805;SDS011;2929;50.810;8.342;2024-01-10T09:16:34;22.57;;;9.87;;
5805;SDS011;2929;50.810;8.342;2024-01-10T09:19:02;23.40;;;10.57;;
5805;SDS011;2929;50.810;8.342;2024-01-10T09:21:29;22.20;;;10.27;;
5805;SDS011;2929;50.810;8.342;2024-01-10T09:23:58;21.13;;;10.57;;
5805;SDS011;2929;50.810;8.342;2024-01-10T09:26:25;24.23;;;11.20;;
5805;SDS011;2929;50.810;8.342;2024-01-10T09:28:52;21.10;;;10.40;;
5805;SDS011;2929;50.810;8.342;2024-01-10T09:31:19;27.50;;;13.03;;
5805;SDS011;2929;50.810;8.342;2024-01-10T09:33:46;23.70;;;10.43;;
5805;SDS011;2929;50.810;8.342;2024-01-10T09:36:15;23.10;;;10.23;;
5805;SDS011;2929;50.810;8.342;2024-01-10T09:38:42;28.70;;;12.00;;
5805;SDS011;2929;50.810;8.342;2024-01-10T09:41:09;24.37;;;9.50;;
5805;SDS011;2929;50.810;8.342;2024-01-10T09:43:38;26.33;;;11.17;;
5805;SDS011;2929;50.810;8.342;2024-01-10T09:46:06;29.10;;;10.67;;
5805;SDS011;2929;50.810;8.342;2024-01-10T09:48:35;21.37;;;9.70;;
5805;SDS011;2929;50.810;8.342;2024-01-10T09:51:02;23.57;;;10.40;;
5805;SDS011;2929;50.810;8.342;2024-01-10T09:53:31;19.60;;;7.70;;
5805;SDS011;2929;50.810;8.342;2024-01-10T09:56:08;19.40;;;8.97;;
5805;SDS011;2929;50.810;8.342;2024-01-10T09:58:35;23.27;;;10.17;;
5805;SDS011;2929;50.810;8.342;2024-01-10T10:01:05;19.77;;;10.43;;
5805;SDS011;2929;50.810;8.342;2024-01-10T10:03:32;27.33;;;11.73;;
5805;SDS011;2929;50.810;8.342;2024-01-10T10:06:04;28.70;;;10.87;;
5805;SDS011;2929;50.810;8.342;2024-01-10T10:08:32;27.67;;;10.70;;
5805;SDS011;2929;50.810;8.342;2024-01-10T10:10:59;25.17;;;12.00;;
5805;SDS011;2929;50.810;8.342;2024-01-10T10:13:26;23.50;;;11.93;;
5805;SDS011;2929;50.810;8.342;2024-01-10T10:15:58;19.27;;;9.77;;
5805;SDS011;2929;50.810;8.342;2024-01-10T10:18:26;20.67;;;8.83;;
5805;SDS011;2929;50.810;8.342;2024-01-10T10:21:06;28.97;;;11.80;;
5805;SDS011;2929;50.810;8.342;2024-01-10T10:23:36;21.73;;;9.93;;
5805;SDS011;2929;50.810;8.342;2024-01-10T10:26:09;27.87;;;7.97;;
5805;SDS011;2929;50.810;8.342;2024-01-10T10:28:39;14.13;;;6.30;;
5805;SDS011;2929;50.810;8.342;2024-01-10T10:31:07;19.23;;;10.00;;
5805;SDS011;2929;50.810;8.342;2024-01-10T10:33:34;19.30;;;7.23;;
5805;SDS011;2929;50.810;8.342;2024-01-10T10:36:02;17.27;;;7.07;;
5805;SDS011;2929;50.810;8.342;2024-01-10T10:38:30;23.83;;;9.97;;
5805;SDS011;2929;50.810;8.342;2024-01-10T10:40:59;18.30;;;7.43;;
5805;SDS011;2929;50.810;8.342;2024-01-10T10:43:28;22.87;;;9.57;;
5805;SDS011;2929;50.810;8.342;2024-01-10T10:46:00;21.77;;;7.90;;
5805;SDS011;2929;50.810;8.342;2024-01-10T10:48:28;22.23;;;8.30;;
5805;SDS011;2929;50.810;8.342;2024-01-10T10:51:03;14.73;;;7.27;;
5805;SDS011;2929;50.810;8.342;2024-01-10T10:53:35;19.50;;;8.73;;
5805;SDS011;2929;50.810;8.342;2024-01-10T10:56:05;15.83;;;6.70;;
5805;SDS011;2929;50.810;8.342;2024-01-10T10:58:33;18.43;;;8.37;;
5805;SDS011;2929;50.810;8.342;2024-01-10T11:01:05;14.97;;;8.10;;
5805;SDS011;2929;50.810;8.342;2024-01-10T11:03:34;18.40;;;6.77;;
5805;SDS011;2929;50.810;8.342;2024-01-10T11:06:02;22.93;;;7.83;;
5805;SDS011;2929;50.810;8.342;2024-01-10T11:08:30;19.63;;;7.70;;
5805;SDS011;2929;50.810;8.342;2024-01-10T11:11:02;21.03;;;9.10;;
5805;SDS011;2929;50.810;8.342;2024-01-10T11:13:50;24.53;;;8.33;;
5805;SDS011;2929;50.810;8.342;2024-01-10T11:19:39;17.00;;;8.30;;
5805;SDS011;2929;50.810;8.342;2024-01-10T11:22:24;26.40;;;9.30;;
5805;SDS011;2929;50.810;8.342;2024-01-10T11:25:08;21.03;;;8.70;;
5805;SDS011;2929;50.810;8.342;2024-01-10T11:27:37;20.47;;;8.17;;
5805;SDS011;2929;50.810;8.342;2024-01-10T11:30:05;24.60;;;9.97;;
5805;SDS011;2929;50.810;8.342;2024-01-10T11:32:33;23.47;;;9.20;;
5805;SDS011;2929;50.810;8.342;2024-01-10T11:35:03;20.40;;;8.90;;
5805;SDS011;2929;50.810;8.342;2024-01-10T11:37:38;19.33;;;8.53;;
5805;SDS011;2929;50.810;8.342;2024-01-10T11:40:07;18.50;;;7.17;;
5805;SDS011;2929;50.810;8.342;2024-01-10T11:42:43;20.50;;;8.90;;
5805;SDS011;2929;50.810;8.342;2024-01-10T11:45:16;28.57;;;10.97;;
5805;SDS011;2929;50.810;8.342;2024-01-10T11:48:18;31.57;;;13.00;;
5805;SDS011;2929;50.810;8.342;2024-01-10T11:50:57;25.00;;;10.17;;
5805;SDS011;2929;50.810;8.342;2024-01-10T11:53:42;26.60;;;10.97;;
5805;SDS011;2929;50.810;8.342;2024-01-10T11:56:13;24.90;;;10.87;;
5805;SDS011;2929;50.810;8.342;2024-01-10T11:58:57;27.80;;;10.90;;
5805;SDS011;2929;50.810;8.342;2024-01-10T12:01:35;24.70;;;10.10;;
5805;SDS011;2929;50.810;8.342;2024-01-10T12:04:07;26.03;;;9.60;;
5805;SDS011;2929;50.810;8.342;2024-01-10T12:06:39;28.80;;;11.17;;
5805;SDS011;2929;50.810;8.342;2024-01-10T12:09:07;21.23;;;9.90;;
5805;SDS011;2929;50.810;8.342;2024-01-10T12:11:35;22.73;;;9.77;;
5805;SDS011;2929;50.810;8.342;2024-01-10T12:14:05;22.03;;;9.70;;
5805;SDS011;2929;50.810;8.342;2024-01-10T12:16:32;26.77;;;11.43;;
5805;SDS011;2929;50.810;8.342;2024-01-10T12:19:01;31.70;;;10.93;;
5805;SDS011;2929;50.810;8.342;2024-01-10T12:21:31;19.07;;;9.00;;
5805;SDS011;2929;50.810;8.342;2024-01-10T12:23:58;22.83;;;10.47;;
5805;SDS011;2929;50.810;8.342;2024-01-10T12:26:25;23.90;;;9.33;;
5805;SDS011;2929;50.810;8.342;2024-01-10T12:28:56;25.43;;;9.80;;
5805;SDS011;2929;50.810;8.342;2024-01-10T12:31:25;29.93;;;10.47;;
5805;SDS011;2929;50.810;8.342;2024-01-10T12:33:54;22.53;;;10.40;;
5805;SDS011;2929;50.810;8.342;2024-01-10T12:36:21;29.13;;;9.90;;
5805;SDS011;2929;50.810;8.342;2024-01-10T12:38:48;23.03;;;9.83;;
5805;SDS011;2929;50.810;8.342;2024-01-10T12:41:16;24.10;;;10.00;;
5805;SDS011;2929;50.810;8.342;2024-01-10T12:43:48;25.70;;;11.27;;
5805;SDS011;2929;50.810;8.342;2024-01-10T12:46:16;20.87;;;9.23;;
5805;SDS011;2929;50.810;8.342;2024-01-10T12:48:44;29.07;;;11.30;;
5805;SDS011;2929;50.810;8.342;2024-01-10T12:51:12;21.17;;;9.57;;
5805;SDS011;2929;50.810;8.342;2024-01-10T12:53:39;34.47;;;9.77;;
5805;SDS011;2929;50.810;8.342;2024-01-10T12:56:09;20.30;;;9.97;;
5805;SDS011;2929;50.810;8.342;2024-01-10T12:58:39;22.73;;;8.63;;
5805;SDS011;2929;50.810;8.342;2024-01-10T13:01:08;21.93;;;9.70;;
5805;SDS011;2929;50.810;8.342;2024-01-10T13:03:36;25.90;;;10.23;;
5805;SDS011;2929;50.810;8.342;2024-01-10T13:06:05;22.93;;;10.90;;
5805;SDS011;2929;50.810;8.342;2024-01-10T13:08:32;25.53;;;11.93;;
5805;SDS011;2929;50.810;8.342;2024-01-10T13:11:00;32.67;;;12.77;;
5805;SDS011;2929;50.810;8.342;2024-01-10T13:13:34;22.50;;;10.50;;
5805;SDS011;2929;50.810;8.342;2024-01-10T13:16:01;25.00;;;11.00;;
5805;SDS011;2929;50.810;8.342;2024-01-10T13:18:29;27.80;;;13.17;;
5805;SDS011;2929;50.810;8.342;2024-01-10T13:20:57;23.70;;;10.70;;
5805;SDS011;2929;50.810;8.342;2024-01-10T13:23:25;29.53;;;12.07;;
5805;SDS011;2929;50.810;8.342;2024-01-10T13:25:53;31.20;;;14.20;;
5805;SDS011;2929;50.810;8.342;2024-01-10T13:28:19;23.40;;;11.23;;
5805;SDS011;2929;50.810;8.342;2024-01-10T13:30:46;29.93;;;12.97;;
5805;SDS011;2929;50.810;8.342;2024-01-10T13:33:16;22.77;;;11.50;;
5805;SDS011;2929;50.810;8.342;2024-01-10T13:35:44;29.80;;;11.90;;
5805;SDS011;2929;50.810;8.342;2024-01-10T13:38:10;26.80;;;10.63;;
5805;SDS011;2929;50.810;8.342;2024-01-10T13:40:39;24.10;;;10.87;;
5805;SDS011;2929;50.810;8.342;2024-01-10T13:43:05;36.17;;;12.17;;
5805;SDS011;2929;50.810;8.342;2024-01-10T13:45:32;26.47;;;11.53;;
5805;SDS011;2929;50.810;8.342;2024-01-10T13:48:00;27.10;;;10.83;;
5805;SDS011;2929;50.810;8.342;2024-01-10T13:50:27;26.30;;;11.70;;
5805;SDS011;2929;50.810;8.342;2024-01-10T13:52:55;24.23;;;11.73;;
5805;SDS011;2929;50.810;8.342;2024-01-10T13:55:22;27.27;;;11.20;;
5805;SDS011;2929;50.810;8.342;2024-01-10T13:57:51;31.20;;;11.90;;
5805;SDS011;2929;50.810;8.342;2024-01-10T14:00:19;32.33;;;11.63;;
5805;SDS011;2929;50.810;8.342;2024-01-10T14:02:46;34.70;;;13.20;;
5805;SDS011;2929;50.810;8.342;2024-01-10T14:05:13;28.90;;;11.60;;
5805;SDS011;2929;50.810;8.342;2024-01-10T14:07:40;29.57;;;11.47;;
5805;SDS011;2929;50.810;8.342;2024-01-10T14:10:10;26.20;;;11.50;;
5805;SDS011;2929;50.810;8.342;2024-01-10T14:12:38;27.33;;;12.10;;
5805;SDS011;2929;50.810;8.342;2024-01-10T14:15:06;29.57;;;12.53;;
5805;SDS011;2929;50.810;8.342;2024-01-10T14:17:35;22.67;;;11.33;;
5805;SDS011;2929;50.810;8.342;2024-01-10T14:20:02;25.37;;;11.80;;
5805;SDS011;2929;50.810;8.342;2024-01-10T14:22:29;23.90;;;11.07;;
5805;SDS011;2929;50.810;8.342;2024-01-10T14:24:56;24.80;;;11.97;;
5805;SDS011;2929;50.810;8.342;2024-01-10T14:27:23;25.53;;;11.70;;
5805;SDS011;2929;50.810;8.342;2024-01-10T14:29:51;26.73;;;12.03;;
5805;SDS011;2929;50.810;8.342;2024-01-10T14:32:19;27.30;;;11.70;;
5805;SDS011;2929;50.810;8.342;2024-01-10T14:34:48;23.60;;;11.30;;
5805;SDS011;2929;50.810;8.342;2024-01-10T14:37:15;23.20;;;11.90;;
5805;SDS011;2929;50.810;8.342;2024-01-10T14:39:42;24.57;;;11.10;;
5805;SDS011;2929;50.810;8.342;2024-01-10T14:42:13;26.60;;;12.47;;
5805;SDS011;2929;50.810;8.342;2024-01-10T14:44:42;27.30;;;12.80;;
5805;SDS011;2929;50.810;8.342;2024-01-10T14:47:11;28.67;;;12.80;;
5805;SDS011;2929;50.810;8.342;2024-01-10T14:49:39;24.03;;;11.80;;
5805;SDS011;2929;50.810;8.342;2024-01-10T14:52:07;26.53;;;13.23;;
5805;SDS011;2929;50.810;8.342;2024-01-10T14:54:34;38.10;;;13.13;;
5805;SDS011;2929;50.810;8.342;2024-01-10T14:57:01;18.37;;;9.77;;
5805;SDS011;2929;50.810;8.342;2024-01-10T14:59:28;28.30;;;11.83;;
5805;SDS011;2929;50.810;8.342;2024-01-10T15:01:56;23.20;;;11.50;;
5805;SDS011;2929;50.810;8.342;2024-01-10T15:04:23;29.10;;;12.30;;